sensor_id;sensor_type;location;lat;lon;timestamp;P1;durP1;ratioP1;P2;durP2;ratioP2
21999;SDS011;11164;48.818;2.322;2023-04-24T00:02:07;5.38;;;2.17;;
21999;SDS011;11164;48.818;2.322;2023-04-24T00:04:35;5.47;;;2.30;;
21999;SDS011;11164;48.818;2.322;2023-04-24T00:07:05;5.43;;;2.20;;
21999;SDS011;11164;48.818;2.322;2023-04-24T00:09:31;4.65;;;2.35;;
21999;SDS011;11164;48.818;2.322;2023-04-24T00:11:57;7.47;;;2.50;;
21999;SDS011;11164;48.818;2.322;2023-04-24T00:14:22;6.40;;;2.25;;
21999;SDS011;11164;48.818;2.322;2023-04-24T00:16:48;6.60;;;2.35;;
21999;SDS011;11164;48.818;2.322;2023-04-24T00:19:13;10.32;;;2.40;;
21999;SDS011;11164;48.818;2.322;2023-04-24T00:21:39;6.10;;;2.33;;
21999;SDS011;11164;48.818;2.322;2023-04-24T00:24:04;9.50;;;2.30;;
21999;SDS011;11164;48.818;2.322;2023-04-24T00:26:30;8.35;;;2.50;;
21999;SDS011;11164;48.818;2.322;2023-04-24T00:28:55;6.00;;;2.22;;
21999;SDS011;11164;48.818;2.322;2023-04-24T00:31:21;5.30;;;2.33;;
21999;SDS011;11164;48.818;2.322;2023-04-24T00:33:46;6.68;;;2.17;;
21999;SDS011;11164;48.818;2.322;2023-04-24T00:36:11;12.48;;;3.30;;
21999;SDS011;11164;48.818;2.322;2023-04-24T00:38:36;5.95;;;2.35;;
21999;SDS011;11164;48.818;2.322;2023-04-24T00:41:02;9.38;;;2.80;;
21999;SDS011;11164;48.818;2.322;2023-04-24T00:43:27;6.35;;;2.45;;
21999;SDS011;11164;48.818;2.322;2023-04-24T00:45:52;7.18;;;2.30;;
21999;SDS011;11164;48.818;2.322;2023-04-24T00:48:19;9.73;;;2.30;;
21999;SDS011;11164;48.818;2.322;2023-04-24T00:50:45;7.93;;;2.33;;
21999;SDS011;11164;48.818;2.322;2023-04-24T00:53:11;8.57;;;2.42;;
21999;SDS011;11164;48.818;2.322;2023-04-24T00:55:36;6.47;;;1.98;;
21999;SDS011;11164;48.818;2.322;2023-04-24T00:58:02;6.63;;;2.33;;
21999;SDS011;11164;48.818;2.322;2023-04-24T01:00:27;5.30;;;2.28;;
21999;SDS011;11164;48.818;2.322;2023-04-24T01:02:53;8.63;;;2.70;;
21999;SDS011;11164;48.818;2.322;2023-04-24T01:05:19;6.75;;;2.22;;
21999;SDS011;11164;48.818;2.322;2023-04-24T01:07:45;7.57;;;2.35;;
21999;SDS011;11164;48.818;2.322;2023-04-24T01:10:13;7.55;;;2.28;;
21999;SDS011;11164;48.818;2.322;2023-04-24T01:12:39;5.55;;;2.30;;
21999;SDS011;11164;48.818;2.322;2023-04-24T01:15:05;6.32;;;2.47;;
21999;SDS011;11164;48.818;2.322;2023-04-24T01:17:31;8.45;;;2.47;;
21999;SDS011;11164;48.818;2.322;2023-04-24T01:19:57;5.75;;;1.88;;
21999;SDS011;11164;48.818;2.322;2023-04-24T01:22:24;6.38;;;2.08;;
21999;SDS011;11164;48.818;2.322;2023-04-24T01:24:50;5.57;;;2.10;;
21999;SDS011;11164;48.818;2.322;2023-04-24T01:27:16;8.77;;;2.40;;
21999;SDS011;11164;48.818;2.322;2023-04-24T01:29:42;8.57;;;2.60;;
21999;SDS011;11164;48.818;2.322;2023-04-24T01:32:07;8.07;;;2.45;;
21999;SDS011;11164;48.818;2.322;2023-04-24T01:34:33;6.70;;;1.98;;
21999;SDS011;11164;48.818;2.322;2023-04-24T01:36:59;7.40;;;2.25;;
21999;SDS011;11164;48.818;2.322;2023-04-24T01:39:24;9.55;;;2.55;;
21999;SDS011;11164;48.818;2.322;2023-04-24T01:41:51;5.25;;;1.92;;
21999;SDS011;11164;48.818;2.322;2023-04-24T01:44:17;4.20;;;1.65;;
21999;SDS011;11164;48.818;2.322;2023-04-24T01:46:43;9.77;;;2.40;;
21999;SDS011;11164;48.818;2.322;2023-04-24T01:49:09;6.05;;;2.17;;
21999;SDS011;11164;48.818;2.322;2023-04-24T01:51:35;6.25;;;1.95;;
21999;SDS011;11164;48.818;2.322;2023-04-24T01:54:00;8.27;;;2.33;;
21999;SDS011;11164;48.818;2.322;2023-04-24T01:56:25;6.22;;;2.10;;
21999;SDS011;11164;48.818;2.322;2023-04-24T01:58:54;10.27;;;2.45;;
21999;SDS011;11164;48.818;2.322;2023-04-24T02:01:21;6.32;;;1.85;;
21999;SDS011;11164;48.818;2.322;2023-04-24T02:03:48;8.05;;;2.03;;
21999;SDS011;11164;48.818;2.322;2023-04-24T02:06:13;4.60;;;1.67;;
21999;SDS011;11164;48.818;2.322;2023-04-24T02:08:38;4.72;;;1.90;;
21999;SDS011;11164;48.818;2.322;2023-04-24T02:11:04;5.85;;;1.90;;
21999;SDS011;11164;48.818;2.322;2023-04-24T02:13:30;6.22;;;2.20;;
21999;SDS011;11164;48.818;2.322;2023-04-24T02:15:56;8.13;;;2.20;;
21999;SDS011;11164;48.818;2.322;2023-04-24T02:18:23;5.68;;;2.05;;
21999;SDS011;11164;48.818;2.322;2023-04-24T02:20:48;4.35;;;1.50;;
21999;SDS011;11164;48.818;2.322;2023-04-24T02:23:14;8.13;;;1.73;;
21999;SDS011;11164;48.818;2.322;2023-04-24T02:25:39;8.27;;;1.98;;
21999;SDS011;11164;48.818;2.322;2023-04-24T02:28:04;9.10;;;2.10;;
21999;SDS011;11164;48.818;2.322;2023-04-24T02:30:30;9.45;;;2.22;;
21999;SDS011;11164;48.818;2.322;2023-04-24T02:32:55;6.25;;;1.85;;
21999;SDS011;11164;48.818;2.322;2023-04-24T02:35:20;6.90;;;2.25;;
21999;SDS011;11164;48.818;2.322;2023-04-24T02:37:46;6.65;;;2.17;;
21999;SDS011;11164;48.818;2.322;2023-04-24T02:40:11;9.55;;;2.03;;
21999;SDS011;11164;48.818;2.322;2023-04-24T02:42:37;7.78;;;1.90;;
21999;SDS011;11164;48.818;2.322;2023-04-24T02:45:02;8.30;;;2.10;;
21999;SDS011;11164;48.818;2.322;2023-04-24T02:47:28;7.43;;;2.20;;
21999;SDS011;11164;48.818;2.322;2023-04-24T02:49:53;8.02;;;2.05;;
21999;SDS011;11164;48.818;2.322;2023-04-24T02:52:19;7.57;;;2.10;;
21999;SDS011;11164;48.818;2.322;2023-04-24T02:54:44;4.30;;;1.92;;
21999;SDS011;11164;48.818;2.322;2023-04-24T02:57:09;5.80;;;1.77;;
21999;SDS011;11164;48.818;2.322;2023-04-24T02:59:35;7.28;;;2.10;;
21999;SDS011;11164;48.818;2.322;2023-04-24T03:02:00;10.75;;;2.20;;
21999;SDS011;11164;48.818;2.322;2023-04-24T03:04:25;6.28;;;1.77;;
21999;SDS011;11164;48.818;2.322;2023-04-24T03:06:51;7.35;;;2.33;;
21999;SDS011;11164;48.818;2.322;2023-04-24T03:09:19;6.93;;;1.70;;
21999;SDS011;11164;48.818;2.322;2023-04-24T03:11:45;6.10;;;1.77;;
21999;SDS011;11164;48.818;2.322;2023-04-24T03:14:10;5.60;;;2.40;;
21999;SDS011;11164;48.818;2.322;2023-04-24T03:16:36;6.97;;;2.22;;
21999;SDS011;11164;48.818;2.322;2023-04-24T03:19:01;8.68;;;2.25;;
21999;SDS011;11164;48.818;2.322;2023-04-24T03:21:27;6.38;;;1.75;;
21999;SDS011;11164;48.818;2.322;2023-04-24T03:23:52;6.25;;;2.10;;
21999;SDS011;11164;48.818;2.322;2023-04-24T03:26:18;6.88;;;2.10;;
21999;SDS011;11164;48.818;2.322;2023-04-24T03:28:43;4.90;;;1.48;;
21999;SDS011;11164;48.818;2.322;2023-04-24T03:31:08;10.75;;;2.70;;
21999;SDS011;11164;48.818;2.322;2023-04-24T03:33:34;5.38;;;1.50;;
21999;SDS011;11164;48.818;2.322;2023-04-24T03:36:00;3.05;;;1.55;;
21999;SDS011;11164;48.818;2.322;2023-04-24T03:38:26;6.75;;;2.20;;
21999;SDS011;11164;48.818;2.322;2023-04-24T03:40:51;7.63;;;1.98;;
21999;SDS011;11164;48.818;2.322;2023-04-24T03:43:16;7.72;;;2.55;;
21999;SDS011;11164;48.818;2.322;2023-04-24T03:45:42;6.57;;;1.90;;
21999;SDS011;11164;48.818;2.322;2023-04-24T03:48:07;6.93;;;2.20;;
21999;SDS011;11164;48.818;2.322;2023-04-24T03:50:32;7.07;;;2.30;;
21999;SDS011;11164;48.818;2.322;2023-04-24T03:52:58;5.65;;;2.20;;
21999;SDS011;11164;48.818;2.322;2023-04-24T03:55:23;5.82;;;1.40;;
21999;SDS011;11164;48.818;2.322;2023-04-24T03:57:48;7.45;;;2.03;;
21999;SDS011;11164;48.818;2.322;2023-04-24T04:00:14;8.77;;;2.70;;
21999;SDS011;11164;48.818;2.322;2023-04-24T04:02:40;6.47;;;2.50;;
21999;SDS011;11164;48.818;2.322;2023-04-24T04:05:05;5.28;;;2.47;;
21999;SDS011;11164;48.818;2.322;2023-04-24T04:07:31;6.15;;;2.40;;
21999;SDS011;11164;48.818;2.322;2023-04-24T04:09:56;7.30;;;2.55;;
21999;SDS011;11164;48.818;2.322;2023-04-24T04:12:21;9.80;;;2.47;;
21999;SDS011;11164;48.818;2.322;2023-04-24T04:14:47;5.63;;;2.30;;
21999;SDS011;11164;48.818;2.322;2023-04-24T04:17:12;5.20;;;2.22;;
21999;SDS011;11164;48.818;2.322;2023-04-24T04:19:37;7.95;;;2.17;;
21999;SDS011;11164;48.818;2.322;2023-04-24T04:22:02;8.40;;;2.85;;
21999;SDS011;11164;48.818;2.322;2023-04-24T04:24:28;8.25;;;2.65;;
21999;SDS011;11164;48.818;2.322;2023-04-24T04:26:53;7.32;;;2.55;;
21999;SDS011;11164;48.818;2.322;2023-04-24T04:29:21;7.82;;;2.60;;
21999;SDS011;11164;48.818;2.322;2023-04-24T04:31:47;5.82;;;2.40;;
21999;SDS011;11164;48.818;2.322;2023-04-24T04:34:13;11.20;;;2.58;;
21999;SDS011;11164;48.818;2.322;2023-04-24T04:36:39;7.25;;;2.50;;
21999;SDS011;11164;48.818;2.322;2023-04-24T04:39:05;7.65;;;2.60;;
21999;SDS011;11164;48.818;2.322;2023-04-24T04:41:30;6.30;;;2.58;;
21999;SDS011;11164;48.818;2.322;2023-04-24T04:43:55;6.50;;;2.92;;
21999;SDS011;11164;48.818;2.322;2023-04-24T04:46:23;5.60;;;2.22;;
21999;SDS011;11164;48.818;2.322;2023-04-24T04:48:50;9.60;;;2.85;;
21999;SDS011;11164;48.818;2.322;2023-04-24T04:51:16;7.75;;;2.72;;
21999;SDS011;11164;48.818;2.322;2023-04-24T04:53:41;8.63;;;2.60;;
21999;SDS011;11164;48.818;2.322;2023-04-24T04:56:07;8.27;;;2.58;;
21999;SDS011;11164;48.818;2.322;2023-04-24T04:58:32;7.70;;;2.95;;
21999;SDS011;11164;48.818;2.322;2023-04-24T05:00:58;6.32;;;2.60;;
21999;SDS011;11164;48.818;2.322;2023-04-24T05:03:24;8.65;;;3.00;;
21999;SDS011;11164;48.818;2.322;2023-04-24T05:05:49;5.63;;;2.60;;
21999;SDS011;11164;48.818;2.322;2023-04-24T05:08:15;7.25;;;3.03;;
21999;SDS011;11164;48.818;2.322;2023-04-24T05:10:40;8.60;;;3.20;;
21999;SDS011;11164;48.818;2.322;2023-04-24T05:13:05;7.38;;;3.30;;
21999;SDS011;11164;48.818;2.322;2023-04-24T05:15:31;9.98;;;3.55;;
21999;SDS011;11164;48.818;2.322;2023-04-24T05:17:56;9.40;;;3.25;;
21999;SDS011;11164;48.818;2.322;2023-04-24T05:20:22;9.18;;;2.95;;
21999;SDS011;11164;48.818;2.322;2023-04-24T05:22:47;6.80;;;3.10;;
21999;SDS011;11164;48.818;2.322;2023-04-24T05:25:12;8.57;;;3.22;;
21999;SDS011;11164;48.818;2.322;2023-04-24T05:27:38;9.52;;;2.30;;
21999;SDS011;11164;48.818;2.322;2023-04-24T05:30:04;8.20;;;3.30;;
21999;SDS011;11164;48.818;2.322;2023-04-24T05:32:30;10.10;;;3.30;;
21999;SDS011;11164;48.818;2.322;2023-04-24T05:34:55;11.23;;;3.70;;
21999;SDS011;11164;48.818;2.322;2023-04-24T05:37:20;9.27;;;4.20;;
21999;SDS011;11164;48.818;2.322;2023-04-24T05:39:46;10.70;;;3.97;;
21999;SDS011;11164;48.818;2.322;2023-04-24T05:42:11;9.13;;;3.33;;
21999;SDS011;11164;48.818;2.322;2023-04-24T05:44:36;12.02;;;3.97;;
21999;SDS011;11164;48.818;2.322;2023-04-24T05:47:02;10.98;;;4.03;;
21999;SDS011;11164;48.818;2.322;2023-04-24T05:49:28;7.45;;;3.97;;
21999;SDS011;11164;48.818;2.322;2023-04-24T05:51:53;7.05;;;3.33;;
21999;SDS011;11164;48.818;2.322;2023-04-24T05:54:18;9.88;;;4.25;;
21999;SDS011;11164;48.818;2.322;2023-04-24T05:56:44;9.57;;;4.28;;
21999;SDS011;11164;48.818;2.322;2023-04-24T05:59:09;10.07;;;4.10;;
21999;SDS011;11164;48.818;2.322;2023-04-24T06:01:34;8.30;;;4.28;;
21999;SDS011;11164;48.818;2.322;2023-04-24T06:04:01;8.88;;;4.13;;
21999;SDS011;11164;48.818;2.322;2023-04-24T06:06:27;9.23;;;4.18;;
21999;SDS011;11164;48.818;2.322;2023-04-24T06:08:52;10.45;;;4.35;;
21999;SDS011;11164;48.818;2.322;2023-04-24T06:11:18;10.23;;;4.18;;
21999;SDS011;11164;48.818;2.322;2023-04-24T06:13:43;8.90;;;4.47;;
21999;SDS011;11164;48.818;2.322;2023-04-24T06:16:08;11.30;;;5.28;;
21999;SDS011;11164;48.818;2.322;2023-04-24T06:18:34;10.07;;;4.80;;
21999;SDS011;11164;48.818;2.322;2023-04-24T06:20:59;11.98;;;4.90;;
21999;SDS011;11164;48.818;2.322;2023-04-24T06:23:25;9.48;;;4.60;;
21999;SDS011;11164;48.818;2.322;2023-04-24T06:25:50;9.48;;;4.85;;
21999;SDS011;11164;48.818;2.322;2023-04-24T06:28:16;8.50;;;4.60;;
21999;SDS011;11164;48.818;2.322;2023-04-24T06:30:41;11.88;;;5.05;;
21999;SDS011;11164;48.818;2.322;2023-04-24T06:33:08;9.68;;;4.78;;
21999;SDS011;11164;48.818;2.322;2023-04-24T06:35:33;11.77;;;5.47;;
21999;SDS011;11164;48.818;2.322;2023-04-24T06:37:59;12.32;;;5.28;;
21999;SDS011;11164;48.818;2.322;2023-04-24T06:40:24;10.93;;;5.20;;
21999;SDS011;11164;48.818;2.322;2023-04-24T06:42:50;10.60;;;5.63;;
21999;SDS011;11164;48.818;2.322;2023-04-24T06:45:15;8.70;;;5.75;;
21999;SDS011;11164;48.818;2.322;2023-04-24T06:47:40;10.77;;;6.68;;
21999;SDS011;11164;48.818;2.322;2023-04-24T06:50:06;12.10;;;5.60;;
21999;SDS011;11164;48.818;2.322;2023-04-24T06:52:31;12.48;;;5.75;;
21999;SDS011;11164;48.818;2.322;2023-04-24T06:55:03;11.35;;;5.53;;
21999;SDS011;11164;48.818;2.322;2023-04-24T06:57:29;12.65;;;5.80;;
21999;SDS011;11164;48.818;2.322;2023-04-24T06:59:55;11.77;;;5.88;;
21999;SDS011;11164;48.818;2.322;2023-04-24T07:02:20;10.88;;;5.57;;
21999;SDS011;11164;48.818;2.322;2023-04-24T07:04:45;10.05;;;5.28;;
21999;SDS011;11164;48.818;2.322;2023-04-24T07:07:12;14.80;;;6.25;;
21999;SDS011;11164;48.818;2.322;2023-04-24T07:09:39;14.18;;;5.70;;
21999;SDS011;11164;48.818;2.322;2023-04-24T07:12:07;11.88;;;6.55;;
21999;SDS011;11164;48.818;2.322;2023-04-24T07:14:33;11.55;;;6.10;;
21999;SDS011;11164;48.818;2.322;2023-04-24T07:16:58;12.18;;;5.57;;
21999;SDS011;11164;48.818;2.322;2023-04-24T07:19:24;9.73;;;5.68;;
21999;SDS011;11164;48.818;2.322;2023-04-24T07:21:49;11.05;;;5.60;;
21999;SDS011;11164;48.818;2.322;2023-04-24T07:24:15;9.90;;;5.40;;
21999;SDS011;11164;48.818;2.322;2023-04-24T07:26:40;11.90;;;6.28;;
21999;SDS011;11164;48.818;2.322;2023-04-24T07:29:06;12.93;;;6.90;;
21999;SDS011;11164;48.818;2.322;2023-04-24T07:31:32;10.80;;;5.82;;
21999;SDS011;11164;48.818;2.322;2023-04-24T07:33:57;13.30;;;6.55;;
21999;SDS011;11164;48.818;2.322;2023-04-24T07:36:23;13.13;;;6.45;;
21999;SDS011;11164;48.818;2.322;2023-04-24T07:38:49;10.45;;;6.13;;
21999;SDS011;11164;48.818;2.322;2023-04-24T07:41:14;12.48;;;6.63;;
21999;SDS011;11164;48.818;2.322;2023-04-24T07:43:40;14.02;;;6.47;;
21999;SDS011;11164;48.818;2.322;2023-04-24T07:46:06;12.95;;;6.57;;
21999;SDS011;11164;48.818;2.322;2023-04-24T07:48:32;15.18;;;7.28;;
21999;SDS011;11164;48.818;2.322;2023-04-24T07:50:57;11.35;;;6.20;;
21999;SDS011;11164;48.818;2.322;2023-04-24T07:53:23;11.02;;;6.03;;
21999;SDS011;11164;48.818;2.322;2023-04-24T07:55:48;10.75;;;4.72;;
21999;SDS011;11164;48.818;2.322;2023-04-24T07:58:13;12.27;;;5.78;;
21999;SDS011;11164;48.818;2.322;2023-04-24T08:00:39;11.70;;;5.63;;
21999;SDS011;11164;48.818;2.322;2023-04-24T08:03:05;12.52;;;5.63;;
21999;SDS011;11164;48.818;2.322;2023-04-24T08:05:30;14.07;;;5.88;;
21999;SDS011;11164;48.818;2.322;2023-04-24T08:07:55;13.80;;;6.78;;
21999;SDS011;11164;48.818;2.322;2023-04-24T08:10:21;12.32;;;7.00;;
21999;SDS011;11164;48.818;2.322;2023-04-24T08:12:47;15.02;;;7.53;;
21999;SDS011;11164;48.818;2.322;2023-04-24T08:15:14;18.52;;;7.85;;
21999;SDS011;11164;48.818;2.322;2023-04-24T08:17:39;15.23;;;7.07;;
21999;SDS011;11164;48.818;2.322;2023-04-24T08:20:05;16.30;;;7.82;;
21999;SDS011;11164;48.818;2.322;2023-04-24T08:22:35;14.75;;;7.60;;
21999;SDS011;11164;48.818;2.322;2023-04-24T08:25:00;11.50;;;7.20;;
21999;SDS011;11164;48.818;2.322;2023-04-24T08:27:26;15.93;;;7.85;;
21999;SDS011;11164;48.818;2.322;2023-04-24T08:29:55;17.13;;;7.88;;
21999;SDS011;11164;48.818;2.322;2023-04-24T08:32:22;16.13;;;7.80;;
21999;SDS011;11164;48.818;2.322;2023-04-24T08:34:47;15.38;;;7.75;;
21999;SDS011;11164;48.818;2.322;2023-04-24T08:37:12;14.40;;;7.10;;
21999;SDS011;11164;48.818;2.322;2023-04-24T08:39:38;18.30;;;7.72;;
21999;SDS011;11164;48.818;2.322;2023-04-24T08:42:04;12.25;;;7.30;;
21999;SDS011;11164;48.818;2.322;2023-04-24T08:44:32;12.68;;;7.82;;
21999;SDS011;11164;48.818;2.322;2023-04-24T08:46:58;14.82;;;7.75;;
21999;SDS011;11164;48.818;2.322;2023-04-24T08:49:25;13.20;;;6.75;;
21999;SDS011;11164;48.818;2.322;2023-04-24T08:51:52;15.65;;;7.38;;
21999;SDS011;11164;48.818;2.322;2023-04-24T08:54:18;13.65;;;7.32;;
21999;SDS011;11164;48.818;2.322;2023-04-24T08:56:44;11.80;;;6.53;;
21999;SDS011;11164;48.818;2.322;2023-04-24T08:59:12;11.32;;;6.63;;
21999;SDS011;11164;48.818;2.322;2023-04-24T09:01:38;12.68;;;7.50;;
21999;SDS011;11164;48.818;2.322;2023-04-24T09:04:05;15.20;;;7.65;;
21999;SDS011;11164;48.818;2.322;2023-04-24T09:06:32;12.65;;;7.78;;
21999;SDS011;11164;48.818;2.322;2023-04-24T09:09:00;10.82;;;5.85;;
21999;SDS011;11164;48.818;2.322;2023-04-24T09:11:26;11.43;;;6.90;;
21999;SDS011;11164;48.818;2.322;2023-04-24T09:13:53;13.48;;;7.22;;
21999;SDS011;11164;48.818;2.322;2023-04-24T09:16:19;10.85;;;6.32;;
21999;SDS011;11164;48.818;2.322;2023-04-24T09:18:45;10.77;;;6.70;;
21999;SDS011;11164;48.818;2.322;2023-04-24T09:21:10;10.68;;;6.53;;
21999;SDS011;11164;48.818;2.322;2023-04-24T09:23:36;10.20;;;6.57;;
21999;SDS011;11164;48.818;2.322;2023-04-24T09:26:02;12.18;;;6.68;;
21999;SDS011;11164;48.818;2.322;2023-04-24T09:31:05;12.18;;;6.82;;
21999;SDS011;11164;48.818;2.322;2023-04-24T09:33:32;16.95;;;7.35;;
21999;SDS011;11164;48.818;2.322;2023-04-24T09:35:58;11.80;;;6.90;;
21999;SDS011;11164;48.818;2.322;2023-04-24T09:38:36;14.10;;;7.60;;
21999;SDS011;11164;48.818;2.322;2023-04-24T09:41:04;13.20;;;7.15;;
21999;SDS011;11164;48.818;2.322;2023-04-24T09:43:31;11.93;;;7.03;;
21999;SDS011;11164;48.818;2.322;2023-04-24T09:45:57;15.48;;;6.85;;
21999;SDS011;11164;48.818;2.322;2023-04-24T09:48:30;11.95;;;6.80;;
21999;SDS011;11164;48.818;2.322;2023-04-24T09:51:03;12.23;;;6.43;;
21999;SDS011;11164;48.818;2.322;2023-04-24T09:53:31;12.68;;;6.88;;
21999;SDS011;11164;48.818;2.322;2023-04-24T09:56:15;11.07;;;5.95;;
21999;SDS011;11164;48.818;2.322;2023-04-24T09:58:41;13.45;;;6.75;;
21999;SDS011;11164;48.818;2.322;2023-04-24T10:01:06;11.07;;;6.82;;
21999;SDS011;11164;48.818;2.322;2023-04-24T10:03:32;10.43;;;6.70;;
21999;SDS011;11164;48.818;2.322;2023-04-24T10:05:59;11.93;;;6.70;;
21999;SDS011;11164;48.818;2.322;2023-04-24T10:08:25;15.07;;;6.70;;
21999;SDS011;11164;48.818;2.322;2023-04-24T10:10:51;11.75;;;6.28;;
21999;SDS011;11164;48.818;2.322;2023-04-24T10:13:17;12.30;;;6.70;;
21999;SDS011;11164;48.818;2.322;2023-04-24T10:15:43;9.90;;;6.10;;
21999;SDS011;11164;48.818;2.322;2023-04-24T10:18:09;11.52;;;6.15;;
21999;SDS011;11164;48.818;2.322;2023-04-24T10:20:36;10.90;;;6.38;;
21999;SDS011;11164;48.818;2.322;2023-04-24T10:23:05;9.68;;;6.53;;
21999;SDS011;11164;48.818;2.322;2023-04-24T10:25:32;12.45;;;6.20;;
21999;SDS011;11164;48.818;2.322;2023-04-24T10:27:59;12.55;;;6.97;;
21999;SDS011;11164;48.818;2.322;2023-04-24T10:30:26;11.43;;;7.43;;
21999;SDS011;11164;48.818;2.322;2023-04-24T10:32:53;11.20;;;6.85;;
21999;SDS011;11164;48.818;2.322;2023-04-24T10:35:19;10.75;;;6.80;;
21999;SDS011;11164;48.818;2.322;2023-04-24T10:37:51;9.40;;;6.18;;
21999;SDS011;11164;48.818;2.322;2023-04-24T10:40:29;9.38;;;5.85;;
21999;SDS011;11164;48.818;2.322;2023-04-24T10:42:57;11.75;;;6.20;;
21999;SDS011;11164;48.818;2.322;2023-04-24T10:45:23;13.27;;;5.70;;
21999;SDS011;11164;48.818;2.322;2023-04-24T10:47:59;9.95;;;5.65;;
21999;SDS011;11164;48.818;2.322;2023-04-24T10:50:30;7.13;;;5.10;;
21999;SDS011;11164;48.818;2.322;2023-04-24T10:53:11;10.45;;;5.03;;
21999;SDS011;11164;48.818;2.322;2023-04-24T10:55:42;8.10;;;4.85;;
21999;SDS011;11164;48.818;2.322;2023-04-24T10:58:08;8.85;;;4.93;;
21999;SDS011;11164;48.818;2.322;2023-04-24T11:00:36;9.45;;;4.72;;
21999;SDS011;11164;48.818;2.322;2023-04-24T11:03:04;8.05;;;4.70;;
21999;SDS011;11164;48.818;2.322;2023-04-24T11:05:49;8.63;;;4.88;;
21999;SDS011;11164;48.818;2.322;2023-04-24T11:08:37;7.78;;;5.15;;
21999;SDS011;11164;48.818;2.322;2023-04-24T11:11:11;11.20;;;5.70;;
21999;SDS011;11164;48.818;2.322;2023-04-24T11:26:54;9.48;;;4.88;;
21999;SDS011;11164;48.818;2.322;2023-04-24T11:30:10;10.23;;;4.70;;
21999;SDS011;11164;48.818;2.322;2023-04-24T11:32:52;6.93;;;4.53;;
21999;SDS011;11164;48.818;2.322;2023-04-24T11:37:26;7.63;;;4.80;;
21999;SDS011;11164;48.818;2.322;2023-04-24T11:39:59;8.32;;;4.68;;
21999;SDS011;11164;48.818;2.322;2023-04-24T11:42:24;9.77;;;4.85;;
21999;SDS011;11164;48.818;2.322;2023-04-24T11:44:53;7.50;;;4.40;;
21999;SDS011;11164;48.818;2.322;2023-04-24T11:47:29;7.57;;;4.63;;
21999;SDS011;11164;48.818;2.322;2023-04-24T11:49:55;7.35;;;4.45;;
21999;SDS011;11164;48.818;2.322;2023-04-24T11:52:21;8.02;;;4.18;;
21999;SDS011;11164;48.818;2.322;2023-04-24T11:54:49;8.38;;;3.97;;
21999;SDS011;11164;48.818;2.322;2023-04-24T11:57:15;7.28;;;4.10;;
21999;SDS011;11164;48.818;2.322;2023-04-24T11:59:41;6.65;;;3.60;;
21999;SDS011;11164;48.818;2.322;2023-04-24T12:02:06;7.35;;;3.58;;
21999;SDS011;11164;48.818;2.322;2023-04-24T12:04:38;8.77;;;3.47;;
21999;SDS011;11164;48.818;2.322;2023-04-24T12:07:05;7.25;;;3.70;;
21999;SDS011;11164;48.818;2.322;2023-04-24T12:12:07;8.82;;;3.85;;
21999;SDS011;11164;48.818;2.322;2023-04-24T12:14:33;5.32;;;3.22;;
21999;SDS011;11164;48.818;2.322;2023-04-24T12:17:23;7.22;;;3.70;;
21999;SDS011;11164;48.818;2.322;2023-04-24T12:19:49;7.57;;;3.30;;
21999;SDS011;11164;48.818;2.322;2023-04-24T12:22:15;7.13;;;3.13;;
21999;SDS011;11164;48.818;2.322;2023-04-24T12:24:56;6.32;;;2.97;;
21999;SDS011;11164;48.818;2.322;2023-04-24T12:27:23;6.00;;;2.85;;
21999;SDS011;11164;48.818;2.322;2023-04-24T12:29:52;6.50;;;3.13;;
21999;SDS011;11164;48.818;2.322;2023-04-24T12:32:21;5.88;;;2.70;;
21999;SDS011;11164;48.818;2.322;2023-04-24T12:34:47;6.03;;;2.80;;
21999;SDS011;11164;48.818;2.322;2023-04-24T12:37:12;7.00;;;2.85;;
21999;SDS011;11164;48.818;2.322;2023-04-24T12:39:38;5.68;;;2.65;;
21999;SDS011;11164;48.818;2.322;2023-04-24T12:42:03;4.82;;;2.47;;
21999;SDS011;11164;48.818;2.322;2023-04-24T12:44:31;6.30;;;2.75;;
21999;SDS011;11164;48.818;2.322;2023-04-24T12:46:59;10.07;;;3.08;;
21999;SDS011;11164;48.818;2.322;2023-04-24T12:49:25;5.70;;;2.53;;
21999;SDS011;11164;48.818;2.322;2023-04-24T12:51:51;7.53;;;2.95;;
21999;SDS011;11164;48.818;2.322;2023-04-24T12:54:16;7.10;;;2.92;;
21999;SDS011;11164;48.818;2.322;2023-04-24T12:56:41;8.85;;;3.05;;
21999;SDS011;11164;48.818;2.322;2023-04-24T12:59:06;7.22;;;2.65;;
21999;SDS011;11164;48.818;2.322;2023-04-24T13:01:32;6.07;;;2.83;;
21999;SDS011;11164;48.818;2.322;2023-04-24T13:03:57;6.65;;;2.70;;
21999;SDS011;11164;48.818;2.322;2023-04-24T13:06:23;7.65;;;2.60;;
21999;SDS011;11164;48.818;2.322;2023-04-24T13:08:48;5.13;;;2.22;;
21999;SDS011;11164;48.818;2.322;2023-04-24T13:11:14;5.82;;;2.50;;
21999;SDS011;11164;48.818;2.322;2023-04-24T13:13:39;5.05;;;2.47;;
21999;SDS011;11164;48.818;2.322;2023-04-24T13:16:05;4.38;;;2.28;;
21999;SDS011;11164;48.818;2.322;2023-04-24T13:18:30;4.43;;;1.90;;
21999;SDS011;11164;48.818;2.322;2023-04-24T13:20:56;4.95;;;2.30;;
21999;SDS011;11164;48.818;2.322;2023-04-24T13:23:21;5.85;;;2.00;;
21999;SDS011;11164;48.818;2.322;2023-04-24T13:25:47;4.18;;;1.90;;
21999;SDS011;11164;48.818;2.322;2023-04-24T13:28:13;4.95;;;2.00;;
21999;SDS011;11164;48.818;2.322;2023-04-24T13:30:38;5.93;;;1.85;;
21999;SDS011;11164;48.818;2.322;2023-04-24T13:33:04;3.20;;;1.80;;
21999;SDS011;11164;48.818;2.322;2023-04-24T13:35:29;4.15;;;1.80;;
21999;SDS011;11164;48.818;2.322;2023-04-24T13:37:55;6.15;;;2.33;;
21999;SDS011;11164;48.818;2.322;2023-04-24T13:40:20;6.65;;;2.20;;
21999;SDS011;11164;48.818;2.322;2023-04-24T13:42:45;3.22;;;1.33;;
21999;SDS011;11164;48.818;2.322;2023-04-24T13:45:10;3.78;;;1.70;;
21999;SDS011;11164;48.818;2.322;2023-04-24T13:47:36;4.13;;;1.80;;
21999;SDS011;11164;48.818;2.322;2023-04-24T13:50:01;4.05;;;1.70;;
21999;SDS011;11164;48.818;2.322;2023-04-24T13:52:27;4.15;;;1.90;;
21999;SDS011;11164;48.818;2.322;2023-04-24T13:54:53;4.57;;;2.00;;
21999;SDS011;11164;48.818;2.322;2023-04-24T13:57:18;5.63;;;2.03;;
21999;SDS011;11164;48.818;2.322;2023-04-24T13:59:43;5.93;;;1.90;;
21999;SDS011;11164;48.818;2.322;2023-04-24T14:02:10;4.32;;;1.98;;
21999;SDS011;11164;48.818;2.322;2023-04-24T14:04:35;3.05;;;1.50;;
21999;SDS011;11164;48.818;2.322;2023-04-24T14:07:00;3.28;;;1.40;;
21999;SDS011;11164;48.818;2.322;2023-04-24T14:09:26;3.72;;;1.40;;
21999;SDS011;11164;48.818;2.322;2023-04-24T14:11:51;3.45;;;1.40;;
21999;SDS011;11164;48.818;2.322;2023-04-24T14:14:17;3.38;;;1.40;;
21999;SDS011;11164;48.818;2.322;2023-04-24T14:16:42;3.05;;;1.40;;
21999;SDS011;11164;48.818;2.322;2023-04-24T14:19:08;5.50;;;1.80;;
21999;SDS011;11164;48.818;2.322;2023-04-24T14:21:33;9.18;;;1.77;;
21999;SDS011;11164;48.818;2.322;2023-04-24T14:23:58;5.85;;;1.60;;
21999;SDS011;11164;48.818;2.322;2023-04-24T14:26:23;2.92;;;1.20;;
21999;SDS011;11164;48.818;2.322;2023-04-24T14:28:50;3.33;;;1.13;;
21999;SDS011;11164;48.818;2.322;2023-04-24T14:31:15;3.25;;;1.40;;
21999;SDS011;11164;48.818;2.322;2023-04-24T14:33:41;3.58;;;1.42;;
21999;SDS011;11164;48.818;2.322;2023-04-24T14:36:06;4.07;;;1.40;;
21999;SDS011;11164;48.818;2.322;2023-04-24T14:38:32;4.03;;;1.50;;
21999;SDS011;11164;48.818;2.322;2023-04-24T14:40:57;12.13;;;2.20;;
21999;SDS011;11164;48.818;2.322;2023-04-24T14:43:22;2.90;;;1.25;;
21999;SDS011;11164;48.818;2.322;2023-04-24T14:45:48;6.07;;;1.70;;
21999;SDS011;11164;48.818;2.322;2023-04-24T14:48:13;5.05;;;1.50;;
21999;SDS011;11164;48.818;2.322;2023-04-24T14:50:39;5.05;;;1.42;;
21999;SDS011;11164;48.818;2.322;2023-04-24T14:53:04;6.88;;;1.63;;
21999;SDS011;11164;48.818;2.322;2023-04-24T14:55:30;4.20;;;1.70;;
21999;SDS011;11164;48.818;2.322;2023-04-24T14:57:55;4.18;;;1.67;;
21999;SDS011;11164;48.818;2.322;2023-04-24T15:00:21;4.32;;;1.65;;